Time;durP1;ratioP1;P1;durP2;ratioP2;P2;SDS_P1;SDS_P2;PMS_P1;PMS_P2;Temp;Humidity;BMP_temperature;BMP_pressure;BME280_temperature;BME280_humidity;BME280_pressure;Samples;Min_cycle;Max_cycle;Signal;HPM_P1;HPM_P2
2023/06/22 00:01:05;;;;;;;155.55;148.68;;;18.50;97.20;;;;;;5074797;28;20024;-74
2023/06/22 00:03:31;;;;;;;218.65;209.18;;;18.50;97.30;;;;;;5074080;28;20028;-74
2023/06/22 00:05:57;;;;;;;109.47;104.35;;;18.50;97.20;;;;;;5077955;28;20082;-74
2023/06/22 00:08:23;;;;;;;238.38;227.57;;;18.40;97.60;;;;;;5074662;28;20028;-74
2023/06/22 00:10:48;;;;;;;181.68;173.73;;;18.40;98.10;;;;;;5075213;28;20459;-74
2023/06/22 00:13:14;;;;;;;135.85;129.48;;;18.30;98.40;;;;;;5058592;28;20032;-74
2023/06/22 00:15:41;;;;;;;102.88;98.13;;;18.30;98.70;;;;;;5079295;28;20098;-74
2023/06/22 00:18:08;;;;;;;201.10;191.82;;;18.30;98.90;;;;;;5073644;28;20085;-74
2023/06/22 00:20:36;;;;;;;225.73;215.88;;;18.30;98.80;;;;;;5090020;28;20025;-74
2023/06/22 00:23:08;;;;;;;216.77;207.27;;;18.20;99.30;;;;;;5070639;28;20121;-74
2023/06/22 00:25:35;;;;;;;222.95;213.23;;;18.10;99.60;;;;;;5057356;28;20086;-74
2023/06/22 00:28:01;;;;;;;230.38;220.05;;;18.10;99.90;;;;;;5056255;28;20024;-74
2023/06/22 00:30:27;;;;;;;130.20;124.50;;;18.10;99.90;;;;;;5076298;28;20056;-74
2023/06/22 00:32:54;;;;;;;158.60;151.27;;;18.10;99.90;;;;;;5074743;28;20062;-74
2023/06/22 00:35:19;;;;;;;139.32;132.93;;;18.10;99.90;;;;;;5073392;28;20482;-74
2023/06/22 00:37:45;;;;;;;177.65;168.95;;;18.00;99.90;;;;;;5080994;28;20042;-74
2023/06/22 00:40:11;;;;;;;125.28;119.10;;;18.00;99.90;;;;;;5084506;28;20479;-74
2023/06/22 00:42:41;;;;;;;121.45;115.72;;;18.00;99.90;;;;;;5077212;28;20519;-74
2023/06/22 00:45:07;;;;;;;110.47;105.05;;;17.90;99.90;;;;;;5090752;28;20032;-74
2023/06/22 00:47:35;;;;;;;189.57;181.38;;;18.00;99.90;;;;;;5072500;28;20040;-74
2023/06/22 00:50:02;;;;;;;210.10;201.05;;;18.00;99.90;;;;;;5074031;28;20032;-74
2023/06/22 00:52:34;;;;;;;246.52;235.65;;;17.90;99.90;;;;;;5078269;28;20060;-74
2023/06/22 00:55:02;;;;;;;147.25;140.60;;;17.80;99.90;;;;;;5072124;28;20032;-74
2023/06/22 00:57:28;;;;;;;170.55;162.77;;;17.90;99.90;;;;;;5073294;28;20040;-74
2023/06/22 00:59:54;;;;;;;162.32;154.52;;;17.80;99.90;;;;;;5072348;28;20375;-74
2023/06/22 01:02:20;;;;;;;143.73;136.05;;;17.80;99.90;;;;;;5053497;28;20475;-74
2023/06/22 01:04:46;;;;;;;130.77;124.70;;;17.80;99.90;;;;;;5078264;28;20042;-74
2023/06/22 01:07:22;;;;;;;214.15;204.38;;;17.70;99.90;;;;;;5072996;28;20040;-74
2023/06/22 01:10:02;;;;;;;168.88;161.55;;;17.70;99.90;;;;;;5076541;28;20023;-74
2023/06/22 01:12:51;;;;;;;135.60;129.40;;;17.70;99.90;;;;;;5073871;28;20074;-74
2023/06/22 01:15:30;;;;;;;161.27;153.82;;;17.70;99.90;;;;;;5077285;28;20039;-74
2023/06/22 01:17:58;;;;;;;133.15;126.60;;;17.60;99.90;;;;;;5073358;28;20056;-74
2023/06/22 01:20:27;;;;;;;129.32;122.68;;;17.60;99.90;;;;;;5073005;28;20075;-74
2023/06/22 01:23:07;;;;;;;117.95;112.45;;;17.60;99.90;;;;;;5073191;28;20054;-74
2023/06/22 01:25:53;;;;;;;;;;;17.50;99.90;;;;;;5075322;28;20035;-74
2023/06/22 01:28:35;;;;;;;72.20;68.18;;;17.50;99.90;;;;;;5073101;28;19912;-74
2023/06/22 01:31:05;;;;;;;154.85;147.45;;;17.60;99.90;;;;;;5075035;28;20036;-74
2023/06/22 01:33:34;;;;;;;117.88;111.68;;;17.50;99.90;;;;;;5071099;28;20490;-74
2023/06/22 01:36:01;;;;;;;152.32;145.23;;;17.50;99.90;;;;;;5079360;28;20031;-74
2023/06/22 01:38:29;;;;;;;200.85;191.80;;;17.50;99.90;;;;;;5074418;28;20035;-74
2023/06/22 01:40:56;;;;;;;266.77;254.20;;;17.50;99.90;;;;;;5071126;28;20543;-74
2023/06/22 01:43:23;;;;;;;130.15;123.82;;;17.40;99.90;;;;;;5074306;28;20037;-74
2023/06/22 01:45:51;;;;;;;179.98;171.70;;;17.40;99.90;;;;;;5077588;28;20529;-74
2023/06/22 01:48:17;;;;;;;173.30;165.52;;;17.40;99.90;;;;;;5074193;28;20037;-74
2023/06/22 01:50:43;;;;;;;140.32;133.70;;;17.40;99.90;;;;;;5074444;28;20056;-74
2023/06/22 01:53:08;;;;;;;190.38;181.48;;;17.40;99.90;;;;;;5070707;28;20064;-74
2023/06/22 01:55:34;;;;;;;179.30;170.77;;;17.40;99.90;;;;;;5075470;28;20733;-74
2023/06/22 01:58:00;;;;;;;90.57;85.78;;;17.30;99.90;;;;;;5075893;28;20461;-74
2023/06/22 02:00:31;;;;;;;157.23;149.45;;;17.30;99.90;;;;;;5077013;28;20081;-74
2023/06/22 02:03:01;;;;;;;151.95;144.50;;;17.40;99.90;;;;;;5075457;28;20296;-74
2023/06/22 02:05:34;;;;;;;146.60;139.40;;;17.30;99.90;;;;;;5077030;28;20103;-74
2023/06/22 02:08:27;;;;;;;170.75;162.25;;;17.30;99.90;;;;;;5074038;28;20784;-74
2023/06/22 02:10:55;;;;;;;112.45;106.43;;;17.30;99.90;;;;;;5074305;28;20048;-74
2023/06/22 02:13:24;;;;;;;134.68;127.45;;;17.20;99.90;;;;;;5074230;28;20028;-74
2023/06/22 02:15:50;;;;;;;81.97;77.22;;;17.20;99.90;;;;;;5059488;28;20058;-74
2023/06/22 02:18:16;;;;;;;93.43;88.25;;;17.20;99.90;;;;;;5071987;28;20036;-74
2023/06/22 02:20:42;;;;;;;96.20;90.13;;;17.20;99.90;;;;;;5073664;28;20032;-74
2023/06/22 02:23:08;;;;;;;87.25;82.00;;;17.20;99.90;;;;;;5071412;28;20087;-75
2023/06/22 02:25:35;;;;;;;82.47;77.50;;;17.10;99.90;;;;;;5073082;28;20037;-74
2023/06/22 02:28:01;;;;;;;169.25;160.25;;;17.10;99.90;;;;;;5077592;28;20032;-74
2023/06/22 02:30:27;;;;;;;138.35;131.05;;;17.20;99.90;;;;;;5054256;28;20036;-74
2023/06/22 02:32:58;;;;;;;122.95;116.32;;;17.20;99.90;;;;;;5073973;28;20061;-75
2023/06/22 02:35:26;;;;;;;115.30;108.82;;;17.10;99.90;;;;;;5072841;28;20060;-74
2023/06/22 02:37:51;;;;;;;189.80;179.77;;;17.10;99.90;;;;;;5055850;28;20039;-74
2023/06/22 02:40:17;;;;;;;99.35;93.28;;;17.00;99.90;;;;;;5075619;28;20033;-74
2023/06/22 02:42:43;;;;;;;85.05;79.90;;;17.00;99.90;;;;;;5074587;28;20032;-75
2023/06/22 02:45:09;;;;;;;103.70;97.65;;;17.00;99.90;;;;;;5069798;28;20040;-75
2023/06/22 02:47:35;;;;;;;99.22;93.43;;;17.00;99.90;;;;;;5076020;28;20041;-75
2023/06/22 02:50:01;;;;;;;121.85;115.15;;;17.00;99.90;;;;;;5071020;28;20077;-75
2023/06/22 02:52:26;;;;;;;187.13;176.80;;;17.00;99.90;;;;;;5073299;28;20036;-74
2023/06/22 02:54:52;;;;;;;64.10;59.53;;;17.00;99.90;;;;;;5074918;28;20037;-74
2023/06/22 02:57:18;;;;;;;100.88;94.82;;;17.00;99.90;;;;;;5051226;28;20048;-74
2023/06/22 02:59:43;;;;;;;127.07;119.65;;;17.00;99.90;;;;;;5074525;28;20504;-74
2023/06/22 03:02:09;;;;;;;96.50;90.60;;;16.90;99.90;;;;;;5074120;28;20044;-74
2023/06/22 03:04:36;;;;;;;91.40;86.10;;;16.90;99.90;;;;;;5071580;28;20056;-74
2023/06/22 03:07:02;;;;;;;97.22;91.22;;;16.90;99.90;;;;;;5086246;28;20094;-74
2023/06/22 03:09:28;;;;;;;87.78;82.53;;;16.90;99.90;;;;;;5071793;28;20503;-74
2023/06/22 03:11:54;;;;;;;94.85;88.53;;;16.90;99.90;;;;;;5058522;28;20032;-75
2023/06/22 03:14:20;;;;;;;96.95;91.05;;;16.90;99.90;;;;;;5072648;28;20032;-74
2023/06/22 03:16:46;;;;;;;131.40;123.57;;;16.90;99.90;;;;;;5070911;28;20409;-74
2023/06/22 03:19:12;;;;;;;90.60;84.38;;;16.90;99.90;;;;;;5070617;28;20028;-74
2023/06/22 03:21:38;;;;;;;89.57;83.57;;;16.80;99.90;;;;;;5074070;28;20040;-74
2023/06/22 03:24:05;;;;;;;79.93;74.50;;;16.80;99.90;;;;;;5076312;28;20028;-74
2023/06/22 03:26:30;;;;;;;91.05;84.85;;;16.90;99.90;;;;;;5073364;28;20521;-75
2023/06/22 03:28:56;;;;;;;123.93;115.47;;;16.80;99.90;;;;;;5090576;28;20040;-74
2023/06/22 03:31:22;;;;;;;86.20;80.80;;;16.80;99.90;;;;;;5056779;28;20039;-74
2023/06/22 03:33:49;;;;;;;97.03;90.95;;;16.70;99.90;;;;;;5076954;28;20035;-75
2023/06/22 03:36:19;;;;;;;104.82;97.85;;;16.80;99.90;;;;;;5089471;28;20032;-74
2023/06/22 03:38:48;;;;;;;100.85;93.38;;;16.70;99.90;;;;;;5079860;28;20505;-74
2023/06/22 03:41:14;;;;;;;98.68;92.75;;;16.70;99.90;;;;;;5073436;28;20089;-74
2023/06/22 03:43:40;;;;;;;89.70;84.15;;;16.70;99.90;;;;;;5073327;28;20051;-73
2023/06/22 03:46:06;;;;;;;116.07;109.47;;;16.70;99.90;;;;;;5076018;28;20482;-74
2023/06/22 03:48:32;;;;;;;86.10;80.68;;;16.80;99.90;;;;;;5077603;28;20037;-73
2023/06/22 03:51:00;;;;;;;65.80;60.97;;;16.80;99.90;;;;;;5074356;28;20075;-74
2023/06/22 03:53:25;;;;;;;68.80;64.10;;;16.80;99.90;;;;;;5079662;28;20111;-74
2023/06/22 03:55:52;;;;;;;88.63;82.97;;;16.80;99.90;;;;;;5073796;28;20170;-74
2023/06/22 03:58:19;;;;;;;110.93;104.55;;;16.80;99.90;;;;;;5078693;28;20028;-74
2023/06/22 04:00:49;;;;;;;159.18;149.13;;;16.80;99.90;;;;;;5078816;28;20028;-73
2023/06/22 04:03:15;;;;;;;94.72;88.68;;;16.70;99.90;;;;;;5078574;28;20070;-75
2023/06/22 04:05:41;;;;;;;96.63;90.47;;;16.70;99.90;;;;;;5080616;28;20169;-74
2023/06/22 04:08:07;;;;;;;95.93;90.40;;;16.70;99.90;;;;;;5076411;28;20024;-74
2023/06/22 04:10:33;;;;;;;162.32;151.13;;;16.70;99.90;;;;;;5079331;28;20028;-74
2023/06/22 04:13:00;;;;;;;112.97;106.22;;;16.70;99.90;;;;;;5076354;28;20028;-75
2023/06/22 04:15:25;;;;;;;86.57;80.88;;;16.80;99.90;;;;;;5074201;28;20043;-74
2023/06/22 04:17:51;;;;;;;95.85;90.03;;;16.80;99.90;;;;;;5074645;28;20453;-74
2023/06/22 04:20:16;;;;;;;80.35;75.57;;;16.90;99.90;;;;;;5074037;28;20468;-74
2023/06/22 04:22:42;;;;;;;93.55;87.80;;;17.00;99.90;;;;;;5074658;28;20048;-74
2023/06/22 04:25:08;;;;;;;85.38;79.70;;;17.00;99.90;;;;;;5077128;28;20096;-73
2023/06/22 04:27:39;;;;;;;103.10;97.18;;;17.00;99.90;;;;;;5072707;28;20032;-74
2023/06/22 04:30:07;;;;;;;71.78;67.45;;;17.00;99.90;;;;;;5056668;28;20151;-74
2023/06/22 04:32:33;;;;;;;52.30;48.13;;;17.00;99.90;;;;;;5038981;28;20156;-74
2023/06/22 04:35:00;;;;;;;66.88;62.38;;;17.10;99.90;;;;;;5087651;28;20110;-74
2023/06/22 04:37:26;;;;;;;128.98;122.20;;;17.10;99.90;;;;;;5077469;28;20013;-74
2023/06/22 04:39:52;;;;;;;107.82;101.90;;;17.20;99.90;;;;;;5078154;28;20032;-74
2023/06/22 04:42:17;;;;;;;90.43;84.38;;;17.20;99.90;;;;;;5077178;28;20036;-75
2023/06/22 04:44:43;;;;;;;105.10;98.97;;;17.30;99.90;;;;;;5073719;28;20033;-76
2023/06/22 04:47:09;;;;;;;99.35;93.90;;;17.30;99.90;;;;;;5072937;28;20045;-74
2023/06/22 04:49:40;;;;;;;154.23;144.32;;;17.30;99.90;;;;;;5077528;28;20847;-74
2023/06/22 04:52:07;;;;;;;82.72;77.80;;;17.30;99.90;;;;;;5071808;28;20094;-73
2023/06/22 04:54:35;;;;;;;87.25;81.97;;;17.40;99.90;;;;;;5071958;28;20487;-74
2023/06/22 04:57:09;;;;;;;91.57;85.93;;;17.50;99.90;;;;;;5073261;28;20078;-74
2023/06/22 04:59:35;;;;;;;78.53;73.68;;;17.50;99.90;;;;;;5070187;28;20024;-73
2023/06/22 05:02:02;;;;;;;106.57;100.05;;;17.50;99.90;;;;;;5073259;28;20028;-75
2023/06/22 05:04:51;;;;;;;76.97;71.65;;;17.50;99.90;;;;;;5073740;28;20082;-75
2023/06/22 05:07:16;;;;;;;77.82;73.40;;;17.60;99.90;;;;;;5075700;28;20043;-75
2023/06/22 05:09:42;;;;;;;126.32;119.43;;;17.70;99.90;;;;;;5076531;28;20032;-74
2023/06/22 05:12:08;;;;;;;93.53;88.35;;;17.90;99.90;;;;;;5085942;28;20036;-74
2023/06/22 05:14:33;;;;;;;63.92;59.63;;;17.90;99.90;;;;;;5075545;28;20498;-76
2023/06/22 05:17:03;;;;;;;83.35;78.63;;;17.80;99.90;;;;;;5056341;28;20032;-76
2023/06/22 05:19:33;;;;;;;133.50;127.07;;;17.90;99.90;;;;;;5037350;28;20040;-77
2023/06/22 05:21:58;;;;;;;77.63;72.83;;;17.90;99.90;;;;;;5070505;28;20368;-75
2023/06/22 05:24:24;;;;;;;73.07;68.90;;;17.90;99.90;;;;;;5072599;28;20037;-76
2023/06/22 05:26:49;;;;;;;90.05;85.22;;;18.00;99.90;;;;;;5070449;28;20470;-75
2023/06/22 05:29:15;;;;;;;85.95;81.13;;;18.20;99.90;;;;;;5074141;28;20139;-74
2023/06/22 05:31:41;;;;;;;116.32;110.82;;;18.20;99.90;;;;;;5072143;28;20124;-74
2023/06/22 05:34:07;;;;;;;66.95;63.30;;;18.20;99.90;;;;;;5078466;28;20064;-74
2023/06/22 05:36:32;;;;;;;113.85;108.10;;;18.30;99.90;;;;;;5076705;28;20391;-73
2023/06/22 05:38:58;;;;;;;76.45;71.70;;;18.40;99.90;;;;;;5073253;28;20390;-72
2023/06/22 05:41:24;;;;;;;76.88;72.90;;;18.50;99.90;;;;;;5074223;28;20036;-74
2023/06/22 05:43:49;;;;;;;119.18;113.38;;;18.50;99.90;;;;;;5071701;28;20155;-73
2023/06/22 05:46:16;;;;;;;88.15;83.38;;;18.60;99.90;;;;;;5085300;28;20041;-72
2023/06/22 05:48:41;;;;;;;74.88;70.75;;;18.70;99.90;;;;;;5076449;28;20043;-73
2023/06/22 05:51:07;;;;;;;78.00;74.03;;;18.80;99.90;;;;;;5070816;28;20032;-73
2023/06/22 05:53:33;;;;;;;161.68;153.68;;;18.90;99.90;;;;;;5078557;28;20047;-75
2023/06/22 05:55:58;;;;;;;97.35;92.03;;;19.00;99.90;;;;;;5070475;28;20036;-77
2023/06/22 05:58:24;;;;;;;178.68;170.15;;;19.20;99.90;;;;;;5069371;28;20037;-77
2023/06/22 06:00:49;;;;;;;81.82;77.50;;;19.10;99.20;;;;;;5075051;28;20031;-77
2023/06/22 06:03:16;;;;;;;104.43;99.22;;;19.30;98.90;;;;;;5071600;28;20025;-76
2023/06/22 06:05:44;;;;;;;92.15;87.20;;;19.40;98.60;;;;;;5054465;28;20035;-76
2023/06/22 06:08:11;;;;;;;108.93;103.13;;;19.50;98.60;;;;;;5057841;28;20060;-76
2023/06/22 06:10:36;;;;;;;87.95;83.03;;;19.60;97.70;;;;;;5085396;28;20387;-76
2023/06/22 06:13:04;;;;;;;96.40;91.72;;;19.60;97.60;;;;;;5074292;28;20028;-76
2023/06/22 06:15:30;;;;;;;86.75;82.40;;;19.70;97.40;;;;;;5073044;28;20033;-76
2023/06/22 06:17:56;;;;;;;139.90;133.73;;;19.80;96.70;;;;;;5074705;28;20047;-76
2023/06/22 06:20:23;;;;;;;71.22;67.15;;;19.90;96.50;;;;;;5073746;28;20498;-76
2023/06/22 06:22:49;;;;;;;94.70;89.63;;;20.00;95.20;;;;;;5075556;28;20048;-76
2023/06/22 06:25:16;;;;;;;204.65;196.00;;;19.90;95.50;;;;;;5078444;28;20043;-76
2023/06/22 06:27:46;;;;;;;92.10;87.50;;;20.00;96.20;;;;;;5076966;28;20033;-76
2023/06/22 06:30:13;;;;;;;88.53;84.00;;;20.00;95.50;;;;;;5069563;28;20040;-76
2023/06/22 06:32:40;;;;;;;116.57;111.13;;;20.10;94.70;;;;;;5073761;28;20129;-76
2023/06/22 06:35:07;;;;;;;148.48;141.73;;;20.20;94.80;;;;;;5069094;28;20062;-76
2023/06/22 06:37:37;;;;;;;112.68;107.47;;;20.20;93.90;;;;;;5054064;28;20016;-76
2023/06/22 06:40:05;;;;;;;77.53;73.15;;;20.30;93.50;;;;;;5071030;28;20123;-76
2023/06/22 06:42:31;;;;;;;166.90;159.38;;;20.40;93.20;;;;;;5071114;28;20048;-75
2023/06/22 06:44:57;;;;;;;183.50;175.88;;;20.40;94.10;;;;;;5086663;28;20035;-76
2023/06/22 06:47:23;;;;;;;98.53;94.13;;;20.50;93.70;;;;;;5069852;28;20021;-76
2023/06/22 06:49:48;;;;;;;109.50;104.63;;;20.60;92.50;;;;;;5074233;28;20393;-76
2023/06/22 06:52:14;;;;;;;114.20;108.97;;;20.70;92.40;;;;;;5075536;28;20036;-76
2023/06/22 06:54:41;;;;;;;158.82;152.15;;;20.70;92.30;;;;;;5086493;28;20444;-76
2023/06/22 06:57:10;;;;;;;149.52;143.02;;;20.80;93.20;;;;;;5088983;28;20035;-76
2023/06/22 06:59:36;;;;;;;161.18;154.57;;;21.00;93.00;;;;;;5080044;28;20033;-76
2023/06/22 07:02:02;;;;;;;136.82;130.10;;;21.00;92.00;;;;;;5074476;28;20039;-76
2023/06/22 07:04:27;;;;;;;194.40;186.50;;;21.20;92.20;;;;;;5088303;28;20037;-76
2023/06/22 07:06:53;;;;;;;142.20;136.18;;;21.40;91.60;;;;;;5072613;28;20028;-76
2023/06/22 07:09:18;;;;;;;172.20;165.15;;;21.40;90.10;;;;;;5074349;28;20032;-77
2023/06/22 07:11:44;;;;;;;160.63;153.38;;;21.40;91.20;;;;;;5094887;28;20028;-76
2023/06/22 07:14:10;;;;;;;121.00;115.47;;;21.60;90.60;;;;;;5076587;28;20043;-75
2023/06/22 07:16:35;;;;;;;164.55;157.82;;;21.50;89.40;;;;;;5062696;28;20029;-76
2023/06/22 07:19:01;;;;;;;172.15;165.20;;;21.80;90.20;;;;;;5077284;28;20058;-76
2023/06/22 07:21:26;;;;;;;141.57;135.20;;;21.90;89.10;;;;;;5056265;28;20048;-76
2023/06/22 07:23:52;;;;;;;87.05;83.20;;;22.00;88.90;;;;;;5082483;28;20512;-76
2023/06/22 07:26:18;;;;;;;136.38;130.27;;;22.00;86.00;;;;;;5089446;28;20534;-76
2023/06/22 07:28:43;;;;;;;139.48;133.45;;;22.10;87.90;;;;;;5088256;28;20036;-76
2023/06/22 07:31:09;;;;;;;99.38;95.13;;;22.10;86.90;;;;;;5074783;28;20075;-76
2023/06/22 07:33:35;;;;;;;135.18;129.30;;;22.10;84.90;;;;;;5075640;28;20040;-76
2023/06/22 07:36:01;;;;;;;159.38;152.65;;;22.40;86.80;;;;;;5081019;28;20485;-76
2023/06/22 07:38:26;;;;;;;166.35;158.85;;;22.50;83.60;;;;;;5089650;28;20794;-76
2023/06/22 07:40:53;;;;;;;128.65;123.40;;;22.60;83.50;;;;;;5077665;28;20125;-76
2023/06/22 07:43:19;;;;;;;155.45;148.77;;;22.90;81.60;;;;;;5087759;28;20797;-76
2023/06/22 07:45:55;;;;;;;162.38;155.18;;;23.00;82.90;;;;;;5075661;28;20064;-76
2023/06/22 07:48:21;;;;;;;131.63;125.70;;;22.90;82.30;;;;;;5076092;28;20102;-76
2023/06/22 07:50:47;;;;;;;124.18;118.90;;;23.00;79.80;;;;;;5073543;28;20507;-76
2023/06/22 07:53:13;;;;;;;152.10;145.38;;;23.00;80.30;;;;;;5078524;28;20072;-76
2023/06/22 07:55:40;;;;;;;172.02;164.98;;;22.90;82.50;;;;;;5077050;28;20723;-77
2023/06/22 07:58:06;;;;;;;179.85;172.55;;;23.00;81.90;;;;;;5077271;28;20109;-76
2023/06/22 08:00:33;;;;;;;173.70;166.43;;;23.10;81.00;;;;;;5088069;28;20506;-76
2023/06/22 08:02:58;;;;;;;171.45;163.93;;;23.40;81.70;;;;;;5079933;28;20144;-76
2023/06/22 08:05:24;;;;;;;146.38;139.85;;;23.40;77.40;;;;;;5074377;28;20052;-76
2023/06/22 08:07:50;;;;;;;172.93;165.88;;;23.50;78.60;;;;;;5077359;28;20077;-76
2023/06/22 08:10:16;;;;;;;206.15;197.18;;;23.70;78.50;;;;;;5077195;28;20703;-76
2023/06/22 08:12:42;;;;;;;225.73;216.55;;;23.80;77.10;;;;;;5074862;28;20040;-76
2023/06/22 08:15:09;;;;;;;195.40;187.70;;;24.00;77.60;;;;;;5074666;28;20082;-76
2023/06/22 08:17:37;;;;;;;189.32;181.45;;;24.00;76.00;;;;;;5075531;28;20115;-76
2023/06/22 08:20:09;;;;;;;230.32;220.18;;;24.10;78.30;;;;;;5086213;28;20039;-76
2023/06/22 08:22:36;;;;;;;214.20;204.88;;;24.40;75.00;;;;;;5077158;28;20074;-76
2023/06/22 08:25:02;;;;;;;245.10;234.68;;;24.40;74.10;;;;;;5075407;28;20474;-76
2023/06/22 08:27:30;;;;;;;251.75;239.90;;;24.40;74.40;;;;;;5075916;28;20037;-76
2023/06/22 08:29:58;;;;;;;252.10;240.32;;;24.60;73.20;;;;;;5053976;28;20078;-76
2023/06/22 08:32:28;;;;;;;423.13;404.10;;;24.80;72.90;;;;;;5073983;28;20048;-76
2023/06/22 08:34:54;;;;;;;453.57;432.80;;;25.00;71.10;;;;;;5061643;28;20035;-76
2023/06/22 08:37:21;;;;;;;435.20;415.33;;;24.90;72.30;;;;;;5075251;28;20285;-75
2023/06/22 08:39:47;;;;;;;556.38;529.83;;;25.10;70.80;;;;;;5073325;28;20081;-76
2023/06/22 08:42:12;;;;;;;516.22;492.05;;;25.50;72.70;;;;;;5058366;28;20040;-76
2023/06/22 08:44:38;;;;;;;488.85;466.33;;;25.50;71.40;;;;;;5072480;28;20094;-76
2023/06/22 08:47:04;;;;;;;508.95;485.98;;;25.80;70.80;;;;;;5073006;28;20036;-76
2023/06/22 08:49:30;;;;;;;511.77;485.17;;;26.00;69.60;;;;;;5076282;28;20040;-76
2023/06/22 08:51:56;;;;;;;623.70;590.83;;;26.30;67.10;;;;;;5067711;28;20035;-76
2023/06/22 08:54:22;;;;;;;584.50;555.97;;;26.70;66.50;;;;;;5078635;28;20035;-76
2023/06/22 08:56:48;;;;;;;524.35;500.38;;;26.40;68.20;;;;;;5060183;28;20024;-76
2023/06/22 08:59:14;;;;;;;636.78;604.20;;;26.80;69.50;;;;;;5075514;28;20107;-76
2023/06/22 09:01:39;;;;;;;644.13;608.70;;;26.80;64.40;;;;;;5058543;28;20024;-76
2023/06/22 09:04:07;;;;;;;677.10;641.97;;;26.60;64.70;;;;;;5072536;28;20490;-76
2023/06/22 09:06:33;;;;;;;691.47;654.30;;;26.50;65.40;;;;;;5076233;28;20025;-76
2023/06/22 09:09:01;;;;;;;660.95;626.83;;;26.40;65.00;;;;;;5074892;28;20056;-76
2023/06/22 09:11:27;;;;;;;663.88;629.50;;;26.90;65.50;;;;;;5072910;28;20119;-76
2023/06/22 09:13:53;;;;;;;834.63;782.53;;;27.10;64.30;;;;;;5078624;28;20103;-76
2023/06/22 09:16:19;;;;;;;666.03;630.28;;;27.00;63.00;;;;;;5091562;28;20506;-76
2023/06/22 09:18:48;;;;;;;828.33;777.65;;;27.10;64.60;;;;;;5075116;28;20032;-76
2023/06/22 09:21:14;;;;;;;862.15;806.60;;;27.10;62.20;;;;;;5058012;28;20082;-76
2023/06/22 09:23:39;;;;;;;783.97;736.60;;;27.30;62.50;;;;;;5075559;28;20036;-76
2023/06/22 09:26:05;;;;;;;816.70;766.83;;;27.60;63.90;;;;;;5089712;28;20123;-76
2023/06/22 09:28:31;;;;;;;812.72;763.70;;;28.00;59.80;;;;;;5073318;28;20443;-76
2023/06/22 09:30:58;;;;;;;825.47;774.95;;;27.90;61.00;;;;;;5075640;28;20759;-76
2023/06/22 09:33:25;;;;;;;786.50;738.17;;;28.30;59.20;;;;;;5076964;28;20064;-76
2023/06/22 09:35:51;;;;;;;794.08;746.63;;;28.10;59.80;;;;;;5071601;28;20039;-76
2023/06/22 09:38:16;;;;;;;848.65;793.85;;;28.10;61.60;;;;;;5072897;28;20029;-76
2023/06/22 09:40:42;;;;;;;852.13;796.92;;;28.20;60.50;;;;;;5078314;28;20078;-76
2023/06/22 09:43:08;;;;;;;885.33;826.78;;;28.60;58.90;;;;;;5074271;28;20036;-76
2023/06/22 09:45:34;;;;;;;797.60;748.05;;;28.70;59.00;;;;;;5087884;28;20115;-76
2023/06/22 09:48:00;;;;;;;873.55;815.78;;;28.90;58.10;;;;;;5075538;28;20123;-76
2023/06/22 09:50:25;;;;;;;877.45;820.55;;;28.70;58.50;;;;;;5084211;28;20040;-76
2023/06/22 09:52:54;;;;;;;886.40;828.10;;;28.30;60.40;;;;;;5076919;28;20039;-76
2023/06/22 09:55:20;;;;;;;965.95;894.45;;;28.60;60.30;;;;;;5073117;28;20399;-76
2023/06/22 09:57:46;;;;;;;903.15;840.25;;;28.60;57.10;;;;;;5077028;28;20024;-76
2023/06/22 10:00:13;;;;;;;1022.45;944.35;;;28.50;58.20;;;;;;5078138;28;20036;-76
2023/06/22 10:02:40;;;;;;;930.30;866.53;;;28.90;58.10;;;;;;5072763;28;20036;-76
2023/06/22 10:05:06;;;;;;;1015.65;938.88;;;28.70;58.80;;;;;;5076121;28;20021;-76
2023/06/22 10:07:32;;;;;;;953.10;885.75;;;29.10;58.20;;;;;;5075840;28;20094;-76
2023/06/22 10:09:58;;;;;;;998.13;914.38;;;29.50;57.10;;;;;;5074569;28;20465;-76
2023/06/22 10:12:23;;;;;;;1052.28;968.97;;;29.00;56.10;;;;;;5074299;28;20421;-76
2023/06/22 10:14:49;;;;;;;1093.60;998.25;;;29.30;56.20;;;;;;5071746;28;20051;-76
2023/06/22 10:17:14;;;;;;;1087.43;993.50;;;29.80;55.50;;;;;;5054207;28;20039;-76
2023/06/22 10:19:41;;;;;;;1067.63;980.35;;;30.30;53.20;;;;;;5078452;28;20032;-76
2023/06/22 10:22:07;;;;;;;1069.75;981.95;;;29.80;53.80;;;;;;5086845;28;20044;-76
2023/06/22 10:24:32;;;;;;;1085.45;992.97;;;30.20;52.90;;;;;;5057709;28;20082;-76
2023/06/22 10:26:58;;;;;;;836.17;753.70;;;30.50;53.90;;;;;;5082916;28;20044;-76
2023/06/22 10:29:24;;;;;;;1999.90;999.90;;;30.70;51.50;;;;;;5069583;28;20479;-77
2023/06/22 10:31:49;;;;;;;1999.90;999.90;;;31.60;48.00;;;;;;5074209;28;20028;-77
2023/06/22 10:34:15;;;;;;;1999.90;999.90;;;31.40;46.80;;;;;;5072931;28;20395;-76
2023/06/22 10:36:41;;;;;;;1999.90;999.90;;;31.70;46.20;;;;;;5072427;28;20107;-76
2023/06/22 10:39:06;;;;;;;1999.90;999.90;;;30.90;47.90;;;;;;5071394;28;20091;-76
2023/06/22 10:41:32;;;;;;;1999.90;999.90;;;30.80;46.90;;;;;;5070535;28;20024;-76
2023/06/22 10:43:58;;;;;;;1999.90;999.90;;;31.30;46.50;;;;;;5072793;28;20067;-76
2023/06/22 10:46:27;;;;;;;1999.90;999.90;;;31.60;44.30;;;;;;5086056;28;20031;-76
2023/06/22 10:48:55;;;;;;;1999.90;999.90;;;31.70;45.20;;;;;;5076344;28;20043;-76
2023/06/22 10:51:21;;;;;;;1999.90;999.90;;;31.80;44.40;;;;;;5071695;28;20090;-76
2023/06/22 10:53:46;;;;;;;1999.90;999.90;;;32.00;43.80;;;;;;5073298;28;20024;-76
2023/06/22 10:56:12;;;;;;;1999.90;999.90;;;32.00;44.30;;;;;;5076751;28;20031;-76
2023/06/22 10:58:37;;;;;;;1999.90;999.90;;;31.60;41.60;;;;;;5073717;28;20051;-76
2023/06/22 11:01:03;;;;;;;1999.90;999.90;;;31.90;43.50;;;;;;5071302;28;20036;-76
2023/06/22 11:03:29;;;;;;;1999.90;999.90;;;32.40;42.00;;;;;;5075095;28;20568;-76
2023/06/22 11:05:54;;;;;;;1999.90;999.90;;;32.70;41.00;;;;;;5074858;28;20024;-76
2023/06/22 11:08:20;;;;;;;1999.90;999.90;;;32.40;44.60;;;;;;5055345;28;20545;-76
2023/06/22 11:10:46;;;;;;;1999.90;999.90;;;32.60;41.30;;;;;;5076943;28;20041;-76
2023/06/22 11:13:11;;;;;;;1999.90;999.90;;;33.00;37.70;;;;;;5086053;28;20048;-76
2023/06/22 11:15:38;;;;;;;1999.90;999.90;;;33.50;36.70;;;;;;5078626;28;20043;-76
2023/06/22 11:18:05;;;;;;;1999.90;999.90;;;34.00;37.90;;;;;;5074665;28;20024;-76
2023/06/22 11:20:33;;;;;;;1999.90;999.90;;;34.20;38.20;;;;;;5071347;28;20059;-76
2023/06/22 11:22:59;;;;;;;1999.90;999.90;;;34.70;36.70;;;;;;5071781;28;20524;-76
2023/06/22 11:25:25;;;;;;;1999.90;999.90;;;34.50;37.00;;;;;;5088016;28;20032;-76
2023/06/22 11:27:53;;;;;;;1999.90;999.90;;;34.10;36.20;;;;;;5075738;28;20034;-76
2023/06/22 11:30:20;;;;;;;1999.90;999.90;;;33.80;36.50;;;;;;5077634;28;20036;-76
2023/06/22 11:32:46;;;;;;;1999.90;999.90;;;33.90;36.30;;;;;;5070296;28;20143;-76
2023/06/22 11:35:11;;;;;;;1999.90;999.90;;;33.70;37.30;;;;;;5074708;28;20123;-76
2023/06/22 11:37:37;;;;;;;1999.90;999.90;;;33.10;40.00;;;;;;5089197;28;20039;-76
2023/06/22 11:40:05;;;;;;;1999.90;999.90;;;33.10;40.40;;;;;;5072540;28;20067;-76
2023/06/22 11:42:31;;;;;;;1999.90;999.90;;;33.10;40.90;;;;;;5067663;28;20467;-78
2023/06/22 11:44:56;;;;;;;1999.90;999.90;;;33.40;39.50;;;;;;5084094;28;20058;-77
2023/06/22 11:47:22;;;;;;;1999.90;999.90;;;33.20;40.00;;;;;;5088656;28;20047;-77
2023/06/22 11:49:48;;;;;;;1999.90;999.90;;;33.20;41.20;;;;;;5082910;28;20045;-77
2023/06/22 11:52:13;;;;;;;1999.90;999.90;;;34.60;41.10;;;;;;5074664;28;20051;-77
2023/06/22 11:54:39;;;;;;;1999.90;999.90;;;35.40;38.20;;;;;;5075482;28;20478;-77
2023/06/22 11:57:04;;;;;;;1999.90;999.90;;;36.10;38.10;;;;;;5077872;28;20024;-77
2023/06/22 11:59:30;;;;;;;1999.90;999.90;;;35.80;35.90;;;;;;5072024;28;20057;-77
2023/06/22 12:01:58;;;;;;;1999.90;999.90;;;34.70;37.40;;;;;;5078608;28;20032;-77
2023/06/22 12:04:23;;;;;;;1999.90;999.90;;;33.20;38.70;;;;;;5073850;28;20119;-78
2023/06/22 12:06:49;;;;;;;1999.90;999.90;;;33.40;37.50;;;;;;5077442;28;20119;-77
2023/06/22 12:09:16;;;;;;;1999.90;999.90;;;33.00;40.40;;;;;;5078464;28;20071;-77